Time;durP1;ratioP1;P1;durP2;ratioP2;P2;SDS_P1;SDS_P2;PMS_P1;PMS_P2;Temp;Humidity;BMP_temperature;BMP_pressure;BME280_temperature;BME280_humidity;BME280_pressure;Samples;Min_cycle;Max_cycle;Signal;HPM_P1;HPM_P2
2022/05/05 00:01:15;;;;;;;20.38;13.48;;;13.60;71.40;;;;;;5093311;28;20052;-91
2022/05/05 00:03:42;;;;;;;18.38;13.32;;;13.60;71.40;;;;;;5094690;28;20051;-92
2022/05/05 00:06:09;;;;;;;19.02;13.57;;;13.60;71.50;;;;;;5094334;28;20052;-92
2022/05/05 00:08:36;;;;;;;20.17;13.80;;;13.60;71.50;;;;;;5093168;28;20097;-92
2022/05/05 00:16:34;;;;;;;19.73;12.35;;;13.60;71.50;;;;;;5094404;28;20040;-91
2022/05/05 00:19:02;;;;;;;18.05;12.55;;;13.60;71.50;;;;;;5094078;28;20052;-91
2022/05/05 00:21:29;;;;;;;20.73;14.05;;;13.60;71.50;;;;;;5093180;28;20044;-93
2022/05/05 00:24:16;;;;;;;18.85;13.10;;;13.60;71.50;;;;;;5094250;28;20039;-91
2022/05/05 00:26:44;;;;;;;18.38;12.85;;;13.60;71.60;;;;;;5094346;28;20402;-92
2022/05/05 00:29:11;;;;;;;18.95;13.38;;;13.60;71.60;;;;;;5093577;28;20040;-92
2022/05/05 00:31:39;;;;;;;19.73;13.82;;;13.50;71.60;;;;;;5093545;28;20048;-92
2022/05/05 00:34:06;;;;;;;18.38;13.38;;;13.50;71.60;;;;;;5094108;28;20089;-90
2022/05/05 00:36:33;;;;;;;19.13;12.95;;;13.50;71.60;;;;;;5093278;28;20410;-94
2022/05/05 00:39:00;;;;;;;17.40;13.13;;;13.50;71.70;;;;;;5090124;28;20094;-92
2022/05/05 00:41:46;;;;;;;16.58;12.00;;;13.50;71.70;;;;;;5093872;28;20055;-92
2022/05/05 00:44:15;;;;;;;16.83;11.93;;;13.50;71.70;;;;;;5093170;28;20047;-93
2022/05/05 00:46:51;;;;;;;17.08;12.60;;;13.50;71.80;;;;;;5093688;28;20093;-91
2022/05/05 00:49:19;;;;;;;19.40;13.30;;;13.50;71.80;;;;;;5092308;28;20101;-92
2022/05/05 00:51:46;;;;;;;18.65;14.15;;;13.50;71.80;;;;;;5093539;28;20048;-92
2022/05/05 00:54:13;;;;;;;16.45;11.98;;;13.50;71.80;;;;;;5093151;28;20101;-91
2022/05/05 00:56:43;;;;;;;19.63;13.25;;;13.40;71.90;;;;;;5093223;28;20059;-92
2022/05/05 00:59:11;;;;;;;16.20;11.80;;;13.40;71.90;;;;;;5092680;28;20464;-92
2022/05/05 01:01:39;;;;;;;14.68;11.07;;;13.40;72.00;;;;;;5093103;28;20055;-91
2022/05/05 01:04:07;;;;;;;18.38;12.45;;;13.50;72.00;;;;;;5093782;28;20135;-92
2022/05/05 01:06:35;;;;;;;16.92;12.30;;;13.40;72.00;;;;;;5092511;28;20048;-93
2022/05/05 01:09:06;;;;;;;18.23;12.25;;;13.40;72.10;;;;;;5091953;28;20131;-92
2022/05/05 01:11:33;;;;;;;18.63;13.20;;;13.40;72.10;;;;;;5091552;28;20047;-92
2022/05/05 01:14:00;;;;;;;18.83;11.95;;;13.40;72.10;;;;;;5091807;28;20048;-93
2022/05/05 01:16:28;;;;;;;18.67;13.32;;;13.40;72.20;;;;;;5075382;28;20043;-92
2022/05/05 01:18:55;;;;;;;18.00;13.43;;;13.40;72.30;;;;;;5088896;28;20045;-91
2022/05/05 01:21:49;;;;;;;22.27;13.65;;;13.40;72.30;;;;;;5091886;28;20139;-92
2022/05/05 01:24:15;;;;;;;20.08;13.35;;;13.30;72.40;;;;;;5091362;28;20071;-93
2022/05/05 01:29:28;;;;;;;16.52;12.18;;;13.30;72.50;;;;;;5092277;28;20052;-93
2022/05/05 01:31:57;;;;;;;18.05;12.90;;;13.30;72.60;;;;;;5092628;28;20456;-92
2022/05/05 01:34:24;;;;;;;15.10;12.35;;;13.30;72.60;;;;;;5091605;28;20039;-94
2022/05/05 01:36:51;;;;;;;19.50;13.85;;;13.30;72.70;;;;;;5092102;28;20055;-93
2022/05/05 01:39:18;;;;;;;17.77;12.77;;;13.30;72.80;;;;;;5071309;28;20117;-93
2022/05/05 01:41:47;;;;;;;17.75;13.20;;;13.30;72.90;;;;;;5086079;28;20056;-92
2022/05/05 01:44:13;;;;;;;18.08;12.65;;;13.30;73.00;;;;;;5091622;28;20048;-92
2022/05/05 01:46:41;;;;;;;18.50;13.75;;;13.30;73.10;;;;;;5092603;28;20047;-93
2022/05/05 01:49:08;;;;;;;18.88;14.35;;;13.20;73.10;;;;;;5092909;28;20109;-91
2022/05/05 01:51:34;;;;;;;21.23;14.70;;;13.20;73.30;;;;;;5091557;28;20085;-91
2022/05/05 01:54:01;;;;;;;25.45;14.38;;;13.20;73.40;;;;;;5091592;28;20499;-93
2022/05/05 01:56:28;;;;;;;21.65;14.90;;;13.20;73.50;;;;;;5091265;28;20048;-92
2022/05/05 01:58:55;;;;;;;19.63;15.05;;;13.20;73.60;;;;;;5091483;28;20097;-92
2022/05/05 02:01:22;;;;;;;21.58;15.23;;;13.20;73.70;;;;;;5091473;28;20090;-91
2022/05/05 02:03:50;;;;;;;19.33;14.32;;;13.20;73.80;;;;;;5092067;28;20044;-94
2022/05/05 02:06:17;;;;;;;22.67;15.85;;;13.20;73.90;;;;;;5091352;28;20056;-92
2022/05/05 02:09:02;;;;;;;24.48;16.92;;;13.20;74.00;;;;;;5120028;28;20039;-93
2022/05/05 02:11:28;;;;;;;23.38;17.05;;;13.10;74.10;;;;;;5090467;28;20048;-93
2022/05/05 02:13:55;;;;;;;23.45;16.10;;;13.20;74.20;;;;;;5092443;28;20055;-92
2022/05/05 02:16:22;;;;;;;25.70;18.85;;;13.10;74.30;;;;;;5091168;28;20052;-92
2022/05/05 02:18:49;;;;;;;22.67;18.02;;;13.10;74.40;;;;;;5092363;28;20059;-90
2022/05/05 02:21:16;;;;;;;25.05;17.08;;;13.10;74.50;;;;;;5091841;28;20040;-90
2022/05/05 02:23:43;;;;;;;21.08;15.55;;;13.10;74.70;;;;;;5091387;28;20464;-92
2022/05/05 02:26:10;;;;;;;20.73;16.60;;;13.10;74.80;;;;;;5090453;28;20479;-92
2022/05/05 02:28:37;;;;;;;24.48;17.25;;;13.10;74.80;;;;;;5091898;28;20044;-91
2022/05/05 02:31:04;;;;;;;24.58;18.65;;;13.10;74.90;;;;;;5091908;28;20064;-91
2022/05/05 02:33:31;;;;;;;23.02;17.38;;;13.10;74.90;;;;;;5091078;28;20052;-91
2022/05/05 02:38:43;;;;;;;23.42;17.17;;;13.10;75.10;;;;;;5091106;28;20048;-92
2022/05/05 02:41:10;;;;;;;23.35;17.60;;;13.10;75.20;;;;;;5091525;28;20545;-91
2022/05/05 02:43:37;;;;;;;24.98;17.30;;;13.10;75.30;;;;;;5090657;28;20105;-92
2022/05/05 02:46:04;;;;;;;24.42;17.88;;;13.10;75.30;;;;;;5091984;28;20109;-91
2022/05/05 02:48:31;;;;;;;23.25;17.92;;;13.10;75.40;;;;;;5091967;28;20052;-91
2022/05/05 02:50:58;;;;;;;23.95;17.77;;;13.10;75.50;;;;;;5090381;28;20048;-93
2022/05/05 02:56:29;;;;;;;25.58;17.70;;;13.10;75.60;;;;;;5095372;28;20106;-91
2022/05/05 02:58:56;;;;;;;22.63;16.65;;;13.10;75.60;;;;;;5094216;28;20514;-92
2022/05/05 03:01:23;;;;;;;29.92;18.50;;;13.00;75.60;;;;;;5095282;28;20040;-91
2022/05/05 03:03:50;;;;;;;22.20;16.95;;;13.10;75.70;;;;;;5095671;28;20516;-91
2022/05/05 03:06:17;;;;;;;23.00;16.80;;;13.10;75.70;;;;;;5093857;28;20086;-90
2022/05/05 03:08:44;;;;;;;20.15;16.10;;;13.10;75.70;;;;;;5093562;28;20048;-92
2022/05/05 03:11:12;;;;;;;22.73;16.85;;;13.10;75.80;;;;;;5095298;28;20052;-92
2022/05/05 03:13:39;;;;;;;22.23;17.00;;;13.10;75.80;;;;;;5094052;28;20556;-91
2022/05/05 03:16:06;;;;;;;23.83;17.60;;;13.10;75.80;;;;;;5094534;28;20109;-90
2022/05/05 03:18:32;;;;;;;21.90;16.13;;;13.00;75.90;;;;;;5095528;28;20060;-90
2022/05/05 03:20:59;;;;;;;21.83;15.98;;;13.10;76.00;;;;;;5093702;28;20044;-91
2022/05/05 03:23:26;;;;;;;22.67;17.10;;;13.00;76.00;;;;;;5094581;28;20047;-92
2022/05/05 03:26:13;;;;;;;21.95;15.88;;;13.10;76.00;;;;;;5095032;28;20043;-93
2022/05/05 03:28:40;;;;;;;20.65;17.00;;;13.10;76.00;;;;;;5094646;28;20497;-91
2022/05/05 03:31:07;;;;;;;21.17;16.25;;;13.00;76.00;;;;;;5094923;28;20044;-92
2022/05/05 03:33:34;;;;;;;29.40;18.83;;;13.10;76.10;;;;;;5093790;28;20098;-91
2022/05/05 03:36:01;;;;;;;24.42;16.52;;;13.10;76.10;;;;;;5093353;28;20044;-91
2022/05/05 03:38:28;;;;;;;21.58;15.82;;;13.10;76.10;;;;;;5094257;28;20056;-91
2022/05/05 03:40:55;;;;;;;21.67;16.75;;;13.10;76.20;;;;;;5093953;28;20059;-92
2022/05/05 03:43:22;;;;;;;22.40;15.85;;;13.00;76.20;;;;;;5093627;28;20039;-92
2022/05/05 03:45:49;;;;;;;22.95;16.77;;;13.10;76.20;;;;;;5093919;28;20101;-91
2022/05/05 03:48:16;;;;;;;22.65;16.52;;;13.00;76.30;;;;;;5094033;28;20045;-92
2022/05/05 03:50:43;;;;;;;20.73;15.40;;;13.00;76.30;;;;;;5093100;28;20421;-92
2022/05/05 03:53:10;;;;;;;23.10;17.67;;;13.00;76.30;;;;;;5093035;28;20052;-93
2022/05/05 03:55:37;;;;;;;22.77;15.65;;;13.00;76.30;;;;;;5094758;28;20043;-92
2022/05/05 03:58:04;;;;;;;22.98;16.40;;;13.00;76.30;;;;;;5093463;28;20101;-92
2022/05/05 04:00:31;;;;;;;23.45;15.15;;;13.10;76.40;;;;;;5091376;28;20052;-92
2022/05/05 04:05:44;;;;;;;20.90;16.27;;;13.00;76.40;;;;;;5092944;28;20571;-91
2022/05/05 04:08:10;;;;;;;22.00;16.38;;;13.10;76.40;;;;;;5094012;28;20044;-92
2022/05/05 04:10:38;;;;;;;22.33;15.48;;;13.10;76.50;;;;;;5094058;28;20044;-91
2022/05/05 04:13:05;;;;;;;24.48;16.95;;;13.10;76.50;;;;;;5094020;28;20097;-92
2022/05/05 04:15:33;;;;;;;20.02;15.07;;;13.10;76.50;;;;;;5093140;28;20048;-92
2022/05/05 04:18:01;;;;;;;22.10;16.63;;;13.10;76.50;;;;;;5092916;28;20056;-92
2022/05/05 04:20:28;;;;;;;22.75;16.02;;;13.10;76.50;;;;;;5092107;28;20598;-92
2022/05/05 04:22:56;;;;;;;22.90;15.90;;;13.10;76.50;;;;;;5094113;28;20464;-92
2022/05/05 04:25:23;;;;;;;21.30;15.32;;;13.10;76.50;;;;;;5092479;28;20097;-92
2022/05/05 04:27:51;;;;;;;20.10;15.43;;;13.10;76.50;;;;;;5093259;28;20494;-90
2022/05/05 04:30:18;;;;;;;22.55;15.77;;;13.10;76.50;;;;;;5092306;28;20101;-91
2022/05/05 04:32:45;;;;;;;23.55;16.25;;;13.10;76.50;;;;;;5090419;28;20089;-91
2022/05/05 04:35:13;;;;;;;21.42;16.25;;;13.10;76.50;;;;;;5093248;28;20044;-92
2022/05/05 04:37:40;;;;;;;23.05;15.55;;;13.10;76.50;;;;;;5092705;28;20051;-92
2022/05/05 04:40:08;;;;;;;20.25;15.60;;;13.10;76.50;;;;;;5092403;28;20048;-92
2022/05/05 04:42:35;;;;;;;21.08;15.68;;;13.10;76.50;;;;;;5093106;28;20055;-92
2022/05/05 04:45:02;;;;;;;23.15;16.70;;;13.10;76.60;;;;;;5092257;28;20052;-93
2022/05/05 04:47:29;;;;;;;21.77;15.85;;;13.10;76.60;;;;;;5093365;28;20048;-92
2022/05/05 04:49:56;;;;;;;25.83;18.25;;;13.10;76.60;;;;;;5091887;28;20048;-93
2022/05/05 04:52:24;;;;;;;26.00;16.05;;;13.10;76.60;;;;;;5093154;28;20557;-92
2022/05/05 04:54:53;;;;;;;23.90;17.08;;;13.10;76.70;;;;;;5092528;28;20064;-92
2022/05/05 04:57:21;;;;;;;24.27;17.52;;;13.10;76.70;;;;;;5092241;28;20052;-93
2022/05/05 04:59:48;;;;;;;23.58;16.85;;;13.10;76.70;;;;;;5093151;28;20105;-90
2022/05/05 05:02:15;;;;;;;22.73;16.33;;;13.10;76.80;;;;;;5093273;28;20097;-92
2022/05/05 05:04:42;;;;;;;22.95;15.80;;;13.10;76.80;;;;;;5092814;28;20036;-91
2022/05/05 05:07:09;;;;;;;21.42;16.17;;;13.10;76.80;;;;;;5093136;28;20143;-91
2022/05/05 05:09:37;;;;;;;28.25;18.27;;;13.10;76.80;;;;;;5092076;28;20048;-93
2022/05/05 05:12:05;;;;;;;24.52;17.65;;;13.10;76.90;;;;;;5092781;28;20104;-91
2022/05/05 05:14:51;;;;;;;25.60;16.02;;;13.10;76.90;;;;;;5091780;28;20052;-92
2022/05/05 05:17:18;;;;;;;26.70;17.63;;;13.20;76.90;;;;;;5092732;28;20051;-93
2022/05/05 05:19:45;;;;;;;27.50;18.27;;;13.10;76.90;;;;;;5092538;28;20051;-91
2022/05/05 05:22:12;;;;;;;22.65;17.05;;;13.20;77.00;;;;;;5091551;28;20460;-90
2022/05/05 05:24:39;;;;;;;24.92;18.08;;;13.20;77.00;;;;;;5090718;28;20051;-91
2022/05/05 05:27:07;;;;;;;24.67;17.58;;;13.20;77.00;;;;;;5092474;28;20067;-89
2022/05/05 05:29:33;;;;;;;25.30;16.80;;;13.20;77.00;;;;;;5092301;28;20047;-90
2022/05/05 05:32:01;;;;;;;21.13;16.92;;;13.20;77.10;;;;;;5091915;28;20050;-89
2022/05/05 05:34:28;;;;;;;25.02;18.27;;;13.20;77.10;;;;;;5076103;28;20048;-89
2022/05/05 05:36:55;;;;;;;25.05;18.00;;;13.20;77.20;;;;;;5092914;28;20044;-89
2022/05/05 05:39:23;;;;;;;27.38;18.83;;;13.20;77.20;;;;;;5091761;28;20052;-89
2022/05/05 05:41:50;;;;;;;30.52;19.85;;;13.20;77.20;;;;;;5090823;28;20059;-89
2022/05/05 05:44:17;;;;;;;28.02;20.95;;;13.20;77.30;;;;;;5091889;28;20044;-90
2022/05/05 05:46:44;;;;;;;25.73;18.27;;;13.20;77.30;;;;;;5091626;28;20559;-89
2022/05/05 05:49:11;;;;;;;26.80;19.45;;;13.20;77.40;;;;;;5091830;28;20120;-90
2022/05/05 05:51:38;;;;;;;27.17;19.17;;;13.20;77.30;;;;;;5092191;28;20044;-90
2022/05/05 05:54:05;;;;;;;27.63;18.60;;;13.30;77.40;;;;;;5090585;28;20452;-90
2022/05/05 05:56:32;;;;;;;24.80;18.38;;;13.20;77.50;;;;;;5091866;28;20476;-88
2022/05/05 05:59:01;;;;;;;28.77;20.02;;;13.30;77.50;;;;;;5090622;28;20044;-88
2022/05/05 06:04:14;;;;;;;30.88;18.92;;;13.30;77.60;;;;;;5090057;28;20047;-88
2022/05/05 06:06:59;;;;;;;;;;;13.30;77.60;;;;;;5088758;28;20085;-90
2022/05/05 06:09:26;;;;;;;26.05;20.63;;;13.30;77.60;;;;;;5092042;28;19920;-88
2022/05/05 06:11:53;;;;;;;29.25;22.90;;;13.30;77.70;;;;;;5092014;28;20502;-88
2022/05/05 06:14:19;;;;;;;24.58;20.58;;;13.30;77.80;;;;;;5091764;28;20109;-89
2022/05/05 06:16:46;;;;;;;28.33;21.55;;;13.30;77.80;;;;;;5090095;28;20052;-88
2022/05/05 06:19:14;;;;;;;24.83;19.55;;;13.30;77.90;;;;;;5091726;28;20418;-88
2022/05/05 06:21:41;;;;;;;26.38;19.45;;;13.30;77.90;;;;;;5091092;28;20048;-88
2022/05/05 06:24:09;;;;;;;27.40;20.90;;;13.30;77.90;;;;;;5091546;28;20048;-87
2022/05/05 06:26:36;;;;;;;27.23;22.35;;;13.30;77.90;;;;;;5091694;28;20105;-89
2022/05/05 06:29:03;;;;;;;29.45;21.73;;;13.30;77.90;;;;;;5095284;28;20036;-90
2022/05/05 06:31:30;;;;;;;32.00;23.38;;;13.30;78.00;;;;;;5089524;28;20464;-89
2022/05/05 06:33:57;;;;;;;31.15;22.23;;;13.30;78.00;;;;;;5095073;28;20144;-89
2022/05/05 06:36:24;;;;;;;32.03;22.90;;;13.30;78.10;;;;;;5087288;28;20048;-89
2022/05/05 06:38:52;;;;;;;30.10;21.25;;;13.40;78.10;;;;;;5079388;28;20055;-89
2022/05/05 06:41:20;;;;;;;29.33;22.92;;;13.40;78.10;;;;;;5083166;28;20075;-89
2022/05/05 06:43:47;;;;;;;27.92;22.10;;;13.40;78.20;;;;;;5090025;28;20056;-90
2022/05/05 06:46:14;;;;;;;26.90;21.23;;;13.40;78.20;;;;;;5076770;28;20109;-90
2022/05/05 06:48:50;;;;;;;28.63;23.80;;;13.40;78.20;;;;;;5079484;28;20059;-89
2022/05/05 06:51:17;;;;;;;35.90;25.55;;;13.40;78.30;;;;;;5078472;28;20040;-89
2022/05/05 06:53:44;;;;;;;28.40;23.55;;;13.40;78.40;;;;;;5080851;28;20047;-89
2022/05/05 06:56:11;;;;;;;30.95;24.88;;;13.40;78.40;;;;;;5089519;28;20059;-88
2022/05/05 07:07:13;;;;;;;28.90;24.17;;;13.50;78.40;;;;;;5091024;28;20056;-91
2022/05/05 07:12:27;;;;;;;30.95;25.23;;;13.50;78.40;;;;;;5079959;28;20065;-91
2022/05/05 07:14:55;;;;;;;30.20;25.20;;;13.50;78.40;;;;;;5081115;28;20078;-92
2022/05/05 07:17:23;;;;;;;33.42;25.10;;;13.50;78.40;;;;;;5079602;28;20131;-90
2022/05/05 07:19:52;;;;;;;24.23;21.63;;;13.60;78.40;;;;;;5090240;28;20049;-92
2022/05/05 07:22:20;;;;;;;28.35;24.05;;;13.60;78.40;;;;;;5091169;28;20126;-91
2022/05/05 07:24:47;;;;;;;30.77;24.42;;;13.60;78.40;;;;;;5081778;28;20060;-91
2022/05/05 07:27:21;;;;;;;30.52;24.80;;;13.60;78.40;;;;;;5092922;28;20556;-91
2022/05/05 07:29:48;;;;;;;29.30;25.40;;;13.60;78.40;;;;;;5082665;28;20056;-92
2022/05/05 07:32:15;;;;;;;28.48;25.38;;;13.60;78.40;;;;;;5079190;28;20044;-92
2022/05/05 07:34:42;;;;;;;31.92;26.85;;;13.60;78.40;;;;;;5076885;28;20134;-92
2022/05/05 07:37:09;;;;;;;30.70;25.10;;;13.60;78.30;;;;;;5092159;28;20056;-92
2022/05/05 07:39:36;;;;;;;32.05;24.75;;;13.70;78.30;;;;;;5078964;28;20064;-92
2022/05/05 07:42:04;;;;;;;29.45;23.88;;;13.60;78.30;;;;;;5080996;28;20105;-93
2022/05/05 07:44:31;;;;;;;35.13;26.08;;;13.70;78.30;;;;;;5084639;28;20048;-92
2022/05/05 07:46:58;;;;;;;29.83;24.73;;;13.70;78.30;;;;;;5089291;28;20047;-91
2022/05/05 07:49:25;;;;;;;30.05;24.83;;;13.70;78.20;;;;;;5074794;28;20097;-92
2022/05/05 07:52:11;;;;;;;30.50;24.35;;;13.70;78.20;;;;;;5090069;28;20127;-91
2022/05/05 07:54:38;;;;;;;29.15;24.92;;;13.70;78.20;;;;;;5089423;28;20062;-93
2022/05/05 07:57:08;;;;;;;31.15;25.02;;;13.70;78.20;;;;;;5081104;28;20047;-92
2022/05/05 07:59:35;;;;;;;27.13;23.00;;;13.80;78.20;;;;;;5078659;28;20048;-92
2022/05/05 08:02:04;;;;;;;29.65;22.80;;;13.80;78.20;;;;;;5078880;28;20556;-92
2022/05/05 08:04:50;;;;;;;28.25;23.92;;;13.80;78.20;;;;;;5074329;28;20048;-91
2022/05/05 08:07:17;;;;;;;28.90;23.02;;;13.80;78.20;;;;;;5074085;28;20048;-92
2022/05/05 08:09:44;;;;;;;26.90;21.13;;;13.90;78.20;;;;;;5088403;28;20044;-91
2022/05/05 08:12:26;;;;;;;27.23;22.13;;;13.90;78.20;;;;;;5078081;28;20212;-91
2022/05/05 08:14:52;;;;;;;25.50;20.40;;;13.90;78.10;;;;;;5077887;28;20071;-90
2022/05/05 08:17:19;;;;;;;24.58;20.13;;;13.90;78.10;;;;;;5078083;28;20392;-92
2022/05/05 08:19:46;;;;;;;23.25;19.92;;;13.90;78.10;;;;;;5089326;28;20043;-92
2022/05/05 08:22:13;;;;;;;25.08;20.50;;;13.90;78.00;;;;;;5091349;28;20464;-92
2022/05/05 08:30:11;;;;;;;26.08;20.88;;;14.10;78.00;;;;;;5072159;28;20049;-91
2022/05/05 08:32:38;;;;;;;21.00;18.30;;;14.10;78.00;;;;;;5081207;28;20051;-91
2022/05/05 08:35:05;;;;;;;19.85;17.50;;;14.10;77.90;;;;;;5089111;28;20051;-91
2022/05/05 08:37:32;;;;;;;20.42;18.23;;;14.20;77.80;;;;;;5075059;28;20048;-93
2022/05/05 08:40:00;;;;;;;23.20;19.20;;;14.20;77.80;;;;;;5091768;28;20056;-92
2022/05/05 08:42:27;;;;;;;21.02;18.50;;;14.30;77.70;;;;;;5072520;28;20062;-91
2022/05/05 08:44:54;;;;;;;21.00;17.02;;;14.30;77.70;;;;;;5076590;28;20056;-90
2022/05/05 08:47:26;;;;;;;22.45;18.77;;;14.40;77.60;;;;;;5077645;28;20125;-91
2022/05/05 08:49:58;;;;;;;18.77;16.67;;;14.40;77.50;;;;;;5078070;28;20051;-91
2022/05/05 08:52:48;;;;;;;19.70;17.60;;;14.40;77.40;;;;;;5073410;28;20040;-92
2022/05/05 08:55:18;;;;;;;18.45;15.88;;;14.40;77.20;;;;;;5089124;28;20051;-92
2022/05/05 08:57:46;;;;;;;17.20;14.60;;;14.40;77.10;;;;;;5087462;28;20053;-90
2022/05/05 09:00:15;;;;;;;18.88;16.88;;;14.50;77.00;;;;;;5089158;28;20052;-92
2022/05/05 09:02:43;;;;;;;17.98;15.88;;;14.50;76.90;;;;;;5091021;28;20128;-92
2022/05/05 09:05:11;;;;;;;20.17;16.80;;;14.60;76.80;;;;;;5087779;28;20570;-92
2022/05/05 09:07:52;;;;;;;17.98;15.15;;;14.60;76.70;;;;;;5074507;28;20048;-92
2022/05/05 09:13:06;;;;;;;16.85;15.05;;;14.70;76.50;;;;;;5088433;28;20540;-91
2022/05/05 09:15:35;;;;;;;18.08;15.27;;;14.70;76.40;;;;;;5087193;28;20117;-91
2022/05/05 09:18:16;;;;;;;16.90;14.75;;;14.80;76.30;;;;;;5082491;28;20055;-93
2022/05/05 09:20:44;;;;;;;17.02;14.52;;;14.80;76.20;;;;;;5090516;28;20044;-91
2022/05/05 09:24:34;;;;;;;15.70;13.77;;;14.90;76.10;;;;;;5088474;28;20044;-92
2022/05/05 09:26:25;;;;;;;16.70;13.98;;;14.90;76.00;;;;;;5085871;28;20105;-91
2022/05/05 09:28:53;;;;;;;19.13;13.73;;;14.90;75.90;;;;;;5074581;28;20060;-91
2022/05/05 09:31:21;;;;;;;17.30;14.57;;;15.00;75.80;;;;;;5089129;28;20067;-91
2022/05/05 09:33:48;;;;;;;14.93;12.98;;;15.10;75.70;;;;;;5076738;28;20048;-92
2022/05/05 09:36:47;;;;;;;14.52;12.75;;;15.10;75.60;;;;;;5084177;28;20475;-92
2022/05/05 09:39:33;;;;;;;15.18;13.30;;;15.20;75.50;;;;;;5085245;28;20044;-93
2022/05/05 09:42:00;;;;;;;15.05;13.45;;;15.20;75.30;;;;;;5079148;28;20053;-92
2022/05/05 09:44:27;;;;;;;15.88;12.73;;;15.30;75.20;;;;;;5077963;28;20043;-91
2022/05/05 09:46:54;;;;;;;15.48;12.88;;;15.30;75.10;;;;;;5087326;28;20563;-92
2022/05/05 09:49:21;;;;;;;15.93;12.20;;;15.40;75.00;;;;;;5073189;28;20059;-92
2022/05/05 09:57:42;;;;;;;12.93;11.18;;;15.60;74.50;;;;;;5071787;28;20049;-92
2022/05/05 10:00:43;;;;;;;14.63;11.57;;;15.60;74.30;;;;;;5071368;28;20101;-92
2022/05/05 10:06:08;;;;;;;15.27;11.10;;;15.70;74.00;;;;;;5082862;28;20136;-91
2022/05/05 10:08:45;;;;;;;12.00;10.68;;;15.80;73.80;;;;;;5085109;28;20044;-91
2022/05/05 10:11:19;;;;;;;12.13;10.82;;;15.80;73.70;;;;;;5086622;28;20044;-92
2022/05/05 10:13:47;;;;;;;12.55;10.82;;;15.90;73.50;;;;;;5073625;28;20044;-92
2022/05/05 10:16:17;;;;;;;14.75;12.35;;;15.90;73.40;;;;;;5088537;28;20567;-93
2022/05/05 10:18:44;;;;;;;11.57;10.27;;;15.90;73.20;;;;;;5078745;28;20106;-92
2022/05/05 10:21:35;;;;;;;14.45;11.38;;;15.90;73.10;;;;;;5084604;28;20060;-93
2022/05/05 10:24:22;;;;;;;12.82;10.48;;;16.00;72.90;;;;;;5088634;28;20044;-94
2022/05/05 10:26:54;;;;;;;12.27;10.40;;;16.00;72.80;;;;;;5082835;28;20122;-92
2022/05/05 10:29:39;;;;;;;12.60;10.52;;;16.00;72.70;;;;;;5076577;28;20045;-92
2022/05/05 10:32:10;;;;;;;12.25;10.40;;;16.00;72.60;;;;;;5087183;28;20094;-92
2022/05/05 10:34:39;;;;;;;13.88;10.35;;;16.10;72.50;;;;;;5089144;28;20040;-93
2022/05/05 10:37:14;;;;;;;12.40;9.70;;;16.10;72.40;;;;;;5074411;28;20049;-93
2022/05/05 10:39:46;;;;;;;11.32;9.98;;;16.20;72.30;;;;;;5081424;28;20056;-92
2022/05/05 10:42:22;;;;;;;10.60;9.40;;;16.20;72.20;;;;;;5076211;28;20056;-91
2022/05/05 10:45:10;;;;;;;10.77;8.90;;;16.20;72.10;;;;;;5078399;28;20502;-92
2022/05/05 10:47:55;;;;;;;10.15;9.15;;;16.20;72.00;;;;;;5082328;28;20399;-90
2022/05/05 10:50:39;;;;;;;12.82;10.27;;;16.20;71.90;;;;;;5075906;28;20047;-92
2022/05/05 10:53:07;;;;;;;12.20;9.68;;;16.30;71.80;;;;;;5078976;28;20482;-93
2022/05/05 10:55:45;;;;;;;11.00;8.95;;;16.30;71.60;;;;;;5072499;28;20052;-93
2022/05/05 10:59:06;;;;;;;10.35;9.25;;;16.30;71.60;;;;;;5074227;28;20048;-93
2022/05/05 11:01:42;;;;;;;9.90;8.90;;;16.30;71.50;;;;;;5071861;28;20047;-92
2022/05/05 11:04:30;;;;;;;11.48;8.77;;;16.30;71.40;;;;;;5073813;28;20056;-90
2022/05/05 11:07:19;;;;;;;9.35;8.38;;;16.30;71.30;;;;;;5087171;28;20130;-90
2022/05/05 11:09:46;;;;;;;11.02;8.73;;;16.40;71.20;;;;;;5075705;28;20052;-91
2022/05/05 11:12:16;;;;;;;11.15;9.10;;;16.40;71.20;;;;;;5083462;28;20452;-91
2022/05/05 11:23:48;;;;;;;9.38;8.02;;;16.40;70.80;;;;;;5079269;28;20053;-90
2022/05/05 11:26:17;;;;;;;11.90;7.75;;;16.40;70.70;;;;;;5078984;28;20048;-91
2022/05/05 11:28:45;;;;;;;9.05;7.68;;;16.40;70.70;;;;;;5075716;28;20049;-91
2022/05/05 11:31:18;;;;;;;9.93;8.60;;;16.40;70.70;;;;;;5076036;28;20096;-90
2022/05/05 11:34:00;;;;;;;11.38;7.95;;;16.40;70.60;;;;;;5093252;28;20054;-91
2022/05/05 11:36:30;;;;;;;8.65;7.68;;;16.40;70.60;;;;;;5078399;28;20060;-92
2022/05/05 11:38:57;;;;;;;10.20;8.10;;;16.40;70.50;;;;;;5078615;28;20048;-90
2022/05/05 11:41:43;;;;;;;10.30;8.15;;;16.40;70.50;;;;;;5094279;28;20045;-91
2022/05/05 11:44:17;;;;;;;10.15;7.80;;;16.40;70.40;;;;;;5078779;28;20048;-92
2022/05/05 11:46:45;;;;;;;10.18;7.00;;;16.40;70.30;;;;;;5076405;28;20503;-91
2022/05/05 11:49:13;;;;;;;9.77;6.72;;;16.30;70.30;;;;;;5075860;28;20056;-91
2022/05/05 11:51:40;;;;;;;9.50;6.63;;;16.30;70.30;;;;;;5078568;28;20052;-91
2022/05/05 11:54:16;;;;;;;8.57;7.10;;;16.30;70.30;;;;;;5077604;28;20102;-92
2022/05/05 11:56:47;;;;;;;10.52;7.32;;;16.30;70.30;;;;;;5078453;28;20044;-91
2022/05/05 12:02:11;;;;;;;10.15;7.22;;;16.30;70.30;;;;;;5078609;28;20040;-92
2022/05/05 12:04:44;;;;;;;11.05;6.72;;;16.20;70.30;;;;;;5075237;28;20452;-90
2022/05/05 12:07:20;;;;;;;11.02;8.38;;;16.20;70.30;;;;;;5088621;28;20494;-92
2022/05/05 12:09:48;;;;;;;11.35;6.93;;;16.20;70.30;;;;;;5078248;28;20056;-93
2022/05/05 12:12:17;;;;;;;9.57;6.20;;;16.20;70.30;;;;;;5080459;28;20045;-94
2022/05/05 12:14:47;;;;;;;9.43;6.20;;;16.20;70.30;;;;;;5087601;28;20052;-94
2022/05/05 12:17:24;;;;;;;8.27;6.20;;;16.20;70.30;;;;;;5085585;28;20102;-91
2022/05/05 12:19:54;;;;;;;8.88;6.40;;;16.20;70.30;;;;;;5087289;28;20080;-94
2022/05/05 12:22:29;;;;;;;7.40;5.65;;;16.20;70.40;;;;;;5091827;28;20059;-92
2022/05/05 12:25:12;;;;;;;9.57;7.50;;;16.20;70.30;;;;;;5092537;28;20514;-92
2022/05/05 12:27:43;;;;;;;9.48;7.72;;;16.20;70.30;;;;;;5089217;28;20051;-92
2022/05/05 12:30:12;;;;;;;6.80;5.85;;;16.20;70.30;;;;;;5084756;28;20048;-92
2022/05/05 12:32:53;;;;;;;7.88;6.05;;;16.30;70.20;;;;;;5087093;28;20513;-91
2022/05/05 12:35:35;;;;;;;7.68;5.88;;;16.30;70.20;;;;;;5087252;28;20040;-91
2022/05/05 12:38:04;;;;;;;7.82;5.72;;;16.30;70.20;;;;;;5076104;28;20053;-91
2022/05/05 12:40:33;;;;;;;7.20;5.63;;;16.40;70.10;;;;;;5073763;28;20052;-93
2022/05/05 12:43:07;;;;;;;8.35;5.85;;;16.40;70.10;;;;;;5076795;28;20056;-92
2022/05/05 12:45:37;;;;;;;6.10;4.90;;;16.40;70.00;;;;;;5088214;28;20086;-92
2022/05/05 12:48:07;;;;;;;10.18;5.50;;;16.40;69.90;;;;;;5077210;28;20134;-91
2022/05/05 12:50:46;;;;;;;9.73;5.70;;;16.40;69.90;;;;;;5077467;28;20048;-92
2022/05/05 13:01:49;;;;;;;7.68;4.95;;;16.60;69.50;;;;;;5074258;28;20124;-92
2022/05/05 13:04:18;;;;;;;8.57;5.55;;;16.70;69.50;;;;;;5072750;28;20075;-92
2022/05/05 13:06:48;;;;;;;8.13;5.47;;;16.70;69.40;;;;;;5088609;28;20052;-91
2022/05/05 13:09:15;;;;;;;8.00;4.65;;;16.80;69.30;;;;;;5080546;28;20052;-93
2022/05/05 13:11:46;;;;;;;8.32;5.38;;;16.80;69.10;;;;;;5083122;28;20513;-93
2022/05/05 13:14:14;;;;;;;6.72;5.78;;;16.90;69.00;;;;;;5087219;28;20425;-92
2022/05/05 13:16:42;;;;;;;6.38;5.30;;;16.90;68.90;;;;;;5074477;28;20105;-91
2022/05/05 13:19:10;;;;;;;9.60;5.05;;;16.90;68.80;;;;;;5087426;28;20051;-91
2022/05/05 13:21:41;;;;;;;6.63;4.85;;;16.90;68.70;;;;;;5074702;28;20045;-91
2022/05/05 13:24:09;;;;;;;7.80;5.45;;;17.00;68.60;;;;;;5083287;28;20480;-92
2022/05/05 13:26:38;;;;;;;6.47;5.00;;;17.10;68.50;;;;;;5083833;28;20048;-93
2022/05/05 13:29:06;;;;;;;8.20;5.35;;;17.10;68.40;;;;;;5077149;28;20498;-91
2022/05/05 13:31:33;;;;;;;7.57;5.38;;;17.10;68.30;;;;;;5073336;28;20449;-92
2022/05/05 13:34:00;;;;;;;7.80;5.22;;;17.20;68.30;;;;;;5090950;28;20590;-92
2022/05/05 13:36:27;;;;;;;7.18;5.20;;;17.30;68.20;;;;;;5071192;28;20048;-92
2022/05/05 13:38:58;;;;;;;7.55;5.40;;;17.30;68.00;;;;;;5070762;28;20053;-93
2022/05/05 13:41:32;;;;;;;8.57;5.53;;;17.40;67.90;;;;;;5076735;28;20049;-92
2022/05/05 13:43:58;;;;;;;7.30;5.25;;;17.40;67.80;;;;;;5074688;28;20048;-91
2022/05/05 13:46:44;;;;;;;7.25;5.68;;;17.50;67.60;;;;;;5088527;28;20059;-92
2022/05/05 13:49:11;;;;;;;10.30;5.40;;;17.50;67.50;;;;;;5088567;28;20098;-91
2022/05/05 13:51:38;;;;;;;6.78;5.18;;;17.60;67.30;;;;;;5076618;28;20122;-91
2022/05/05 13:54:26;;;;;;;7.13;4.93;;;17.70;67.20;;;;;;5090095;28;20116;-92